Time;durP1;ratioP1;P1;durP2;ratioP2;P2;SDS_P1;SDS_P2;PMS_P1;PMS_P2;Temp;Humidity;BMP_temperature;BMP_pressure;BME280_temperature;BME280_humidity;BME280_pressure;Samples;Min_cycle;Max_cycle;Signal;HPM_P1;HPM_P2
2023/09/10 00:00:26;;;;;;;2.03;1.37;;;22.50;43.10;;;;;;4982307;28;20661;-49
2023/09/10 00:02:51;;;;;;;1.93;0.93;;;22.40;43.10;;;;;;4974563;28;20412;-49
2023/09/10 00:05:17;;;;;;;1.83;1.17;;;22.40;43.10;;;;;;4974369;28;20180;-49
2023/09/10 00:07:43;;;;;;;1.57;0.80;;;22.30;43.30;;;;;;4974582;28;20322;-49
2023/09/10 00:10:09;;;;;;;1.17;0.60;;;22.30;43.10;;;;;;4974325;28;20184;-49
2023/09/10 00:12:35;;;;;;;2.77;1.60;;;22.30;43.30;;;;;;4974053;28;20251;-48
2023/09/10 00:15:00;;;;;;;1.97;0.80;;;22.30;43.00;;;;;;4974248;28;20419;-49
2023/09/10 00:17:26;;;;;;;1.83;1.50;;;22.30;43.60;;;;;;4974246;28;20183;-49
2023/09/10 00:19:52;;;;;;;1.53;1.20;;;22.30;43.30;;;;;;4974231;28;20227;-49
2023/09/10 00:22:17;;;;;;;1.30;0.87;;;22.30;43.50;;;;;;4981844;28;20200;-51
2023/09/10 00:24:43;;;;;;;1.37;0.90;;;22.20;43.40;;;;;;4974299;28;20179;-51
2023/09/10 00:27:09;;;;;;;2.07;1.40;;;22.20;43.50;;;;;;4974047;28;20672;-48
2023/09/10 00:29:34;;;;;;;2.70;1.20;;;22.20;43.30;;;;;;4974118;28;20182;-48
2023/09/10 00:32:00;;;;;;;1.40;0.90;;;22.20;43.50;;;;;;4973721;28;20200;-50
2023/09/10 00:34:29;;;;;;;1.70;1.17;;;22.20;43.50;;;;;;4972532;28;20199;-50
2023/09/10 00:36:55;;;;;;;1.60;1.40;;;22.20;43.20;;;;;;4982115;28;20203;-48
2023/09/10 00:39:21;;;;;;;2.03;1.00;;;22.20;43.20;;;;;;4974126;28;20477;-49
2023/09/10 00:41:47;;;;;;;2.50;1.70;;;22.20;43.40;;;;;;4973682;28;20195;-49
2023/09/10 00:44:12;;;;;;;1.20;0.67;;;22.10;43.60;;;;;;4973696;28;20590;-47
2023/09/10 00:46:39;;;;;;;2.03;1.57;;;22.10;43.30;;;;;;4973772;28;20184;-50
2023/09/10 00:49:05;;;;;;;1.83;1.33;;;22.10;43.30;;;;;;4973610;28;20179;-50
2023/09/10 00:51:31;;;;;;;1.30;0.90;;;22.00;43.30;;;;;;4973371;28;20770;-49
2023/09/10 00:53:58;;;;;;;1.70;0.97;;;22.00;43.60;;;;;;4973567;28;20180;-49
2023/09/10 00:56:25;;;;;;;1.57;0.77;;;21.90;43.90;;;;;;4973495;28;20961;-47
2023/09/10 00:58:53;;;;;;;1.23;0.80;;;21.90;43.90;;;;;;4972720;28;20921;-49
2023/09/10 01:01:19;;;;;;;5.17;1.50;;;21.80;44.10;;;;;;4973073;28;20530;-47
2023/09/10 01:03:45;;;;;;;2.40;0.80;;;21.80;43.80;;;;;;4973468;28;20905;-49
2023/09/10 01:06:11;;;;;;;1.90;1.10;;;21.80;43.60;;;;;;4981587;28;20422;-49
2023/09/10 01:08:36;;;;;;;1.70;1.00;;;21.80;44.10;;;;;;4973559;28;20755;-49
2023/09/10 01:11:16;;;;;;;1.60;1.20;;;21.80;43.90;;;;;;4981277;28;20525;-47
2023/09/10 01:13:57;;;;;;;2.00;1.13;;;21.80;43.80;;;;;;4967289;28;20187;-50
2023/09/10 01:16:46;;;;;;;2.33;1.20;;;21.80;43.80;;;;;;4973193;28;20976;-48
2023/09/10 01:19:30;;;;;;;1.50;0.70;;;21.70;43.80;;;;;;4974469;28;20921;-47
2023/09/10 01:22:25;;;;;;;1.97;1.63;;;21.70;44.00;;;;;;4977142;28;20427;-49
2023/09/10 01:24:51;;;;;;;1.30;0.80;;;21.60;44.40;;;;;;4980194;28;20415;-47
2023/09/10 01:27:18;;;;;;;1.73;1.07;;;21.50;44.70;;;;;;4981155;28;20829;-49
2023/09/10 01:29:44;;;;;;;1.30;0.60;;;21.50;44.70;;;;;;4981238;28;20415;-49
2023/09/10 01:32:34;;;;;;;3.00;1.27;;;21.50;44.50;;;;;;4980725;28;20573;-48
2023/09/10 01:35:21;;;;;;;1.40;0.90;;;21.50;43.90;;;;;;4973032;28;20746;-49
2023/09/10 01:38:09;;;;;;;1.80;0.77;;;21.50;43.50;;;;;;4979099;28;20509;-49
2023/09/10 01:40:42;;;;;;;1.37;0.77;;;21.30;44.40;;;;;;4965754;28;20506;-50
2023/09/10 01:43:09;;;;;;;1.77;0.60;;;21.20;44.50;;;;;;4972891;28;20415;-46
2023/09/10 01:45:36;;;;;;;1.37;0.80;;;21.20;44.40;;;;;;4973067;28;20430;-48
2023/09/10 01:48:02;;;;;;;1.67;1.20;;;21.20;44.90;;;;;;4972943;28;20411;-50
2023/09/10 01:50:31;;;;;;;2.03;1.53;;;21.20;45.10;;;;;;4972863;28;20443;-47
2023/09/10 01:52:58;;;;;;;2.20;1.63;;;21.30;45.00;;;;;;4973012;28;20418;-49
2023/09/10 01:55:24;;;;;;;1.57;0.83;;;21.20;45.10;;;;;;4972826;28;20459;-49
2023/09/10 01:57:58;;;;;;;1.50;0.80;;;21.20;45.20;;;;;;4972845;28;20909;-47
2023/09/10 02:00:24;;;;;;;2.07;1.33;;;21.30;45.20;;;;;;4972792;28;20412;-50
2023/09/10 02:02:50;;;;;;;1.10;0.60;;;21.30;45.20;;;;;;4972930;28;20490;-48
2023/09/10 02:05:16;;;;;;;2.27;1.00;;;21.30;45.10;;;;;;4972942;28;20187;-47
2023/09/10 02:07:42;;;;;;;1.30;0.90;;;21.30;45.20;;;;;;4972889;28;20266;-49
2023/09/10 02:10:07;;;;;;;1.60;1.00;;;21.30;45.20;;;;;;4972752;28;20514;-47
2023/09/10 02:12:34;;;;;;;1.30;0.80;;;21.20;45.20;;;;;;4983624;28;20290;-50
2023/09/10 02:15:00;;;;;;;1.60;1.33;;;21.20;45.20;;;;;;4984057;28;20415;-50
2023/09/10 02:17:26;;;;;;;3.20;1.77;;;21.20;45.10;;;;;;4976846;28;20921;-47
2023/09/10 02:19:52;;;;;;;2.53;1.57;;;21.20;45.00;;;;;;4976763;28;20441;-50
2023/09/10 02:22:17;;;;;;;1.60;1.27;;;21.20;45.00;;;;;;4976224;28;20829;-50
2023/09/10 02:24:49;;;;;;;1.40;0.80;;;21.20;45.00;;;;;;4976679;28;20168;-49
2023/09/10 02:27:15;;;;;;;1.40;0.90;;;21.20;45.00;;;;;;4976436;28;20258;-47
2023/09/10 02:29:41;;;;;;;4.97;1.20;;;21.20;45.10;;;;;;4976438;28;20507;-49
2023/09/10 02:32:07;;;;;;;1.87;1.20;;;21.20;45.30;;;;;;4976058;28;20192;-50
2023/09/10 02:34:32;;;;;;;1.50;0.90;;;21.20;45.20;;;;;;4976440;28;20204;-49
2023/09/10 02:36:59;;;;;;;1.20;0.70;;;21.20;44.90;;;;;;4976190;28;20261;-50
2023/09/10 02:39:25;;;;;;;1.53;0.87;;;21.20;44.80;;;;;;4976175;28;20223;-49
2023/09/10 02:41:51;;;;;;;1.50;1.23;;;21.20;44.60;;;;;;4975913;28;20426;-47
2023/09/10 02:44:16;;;;;;;1.23;0.80;;;21.20;44.80;;;;;;4976302;28;20172;-49
2023/09/10 02:46:42;;;;;;;2.00;1.40;;;21.20;44.70;;;;;;4976101;28;20610;-49
2023/09/10 02:49:08;;;;;;;2.27;1.13;;;21.20;44.90;;;;;;4976101;28;20172;-48
2023/09/10 02:51:34;;;;;;;3.10;1.60;;;21.10;44.90;;;;;;4975759;28;20274;-50
2023/09/10 02:53:59;;;;;;;3.50;0.90;;;21.20;45.20;;;;;;4975928;28;20250;-48
2023/09/10 02:56:25;;;;;;;3.27;2.73;;;21.20;44.60;;;;;;4975886;28;20283;-50
2023/09/10 02:58:51;;;;;;;3.20;1.53;;;21.20;44.90;;;;;;4975943;28;20242;-48
2023/09/10 03:01:16;;;;;;;1.20;0.83;;;21.20;44.50;;;;;;4975712;28;20196;-48
2023/09/10 03:03:42;;;;;;;1.40;1.13;;;21.20;44.60;;;;;;4975850;28;20649;-50
2023/09/10 03:06:12;;;;;;;1.83;1.10;;;21.10;44.90;;;;;;4975714;28;20164;-48
2023/09/10 03:08:38;;;;;;;2.17;1.10;;;21.10;45.10;;;;;;4975710;28;20179;-48
2023/09/10 03:11:04;;;;;;;1.43;1.17;;;21.00;45.00;;;;;;4975327;28;20575;-50
2023/09/10 03:13:30;;;;;;;1.77;1.67;;;21.00;45.00;;;;;;4975575;28;20423;-47
2023/09/10 03:15:56;;;;;;;1.93;1.10;;;20.90;45.00;;;;;;4975504;28;20497;-50
2023/09/10 03:18:21;;;;;;;2.37;0.90;;;20.90;45.00;;;;;;4975610;28;20495;-48
2023/09/10 03:20:47;;;;;;;1.53;0.80;;;20.90;45.20;;;;;;4975149;28;20283;-50
2023/09/10 03:23:13;;;;;;;2.37;0.97;;;20.90;45.00;;;;;;4974368;28;20172;-50
2023/09/10 03:25:39;;;;;;;1.50;0.80;;;20.90;44.70;;;;;;4975414;28;20226;-47
2023/09/10 03:28:06;;;;;;;1.42;0.60;;;20.90;44.80;;;;;;4975425;28;20168;-50
2023/09/10 03:30:32;;;;;;;2.08;1.90;;;20.90;45.00;;;;;;4975042;28;20176;-50
2023/09/10 03:32:58;;;;;;;1.30;1.00;;;20.80;44.70;;;;;;4975203;28;20230;-48
2023/09/10 03:35:23;;;;;;;1.30;1.03;;;20.80;45.00;;;;;;4975146;28;20447;-48
2023/09/10 03:37:50;;;;;;;2.20;1.20;;;20.80;44.80;;;;;;4975186;28;20238;-50
2023/09/10 03:40:16;;;;;;;2.40;1.50;;;20.70;44.80;;;;;;4975064;28;20299;-47
2023/09/10 03:42:42;;;;;;;1.57;0.90;;;20.70;44.90;;;;;;4974975;28;20883;-50
2023/09/10 03:45:08;;;;;;;1.10;0.60;;;20.70;45.00;;;;;;4975046;28;20403;-50
2023/09/10 03:47:36;;;;;;;1.40;1.03;;;20.70;44.90;;;;;;4975066;28;20295;-49
2023/09/10 03:50:02;;;;;;;1.70;1.23;;;20.70;44.80;;;;;;4974880;28;20407;-49
2023/09/10 03:52:28;;;;;;;2.25;1.88;;;20.70;45.10;;;;;;4974596;28;20486;-47
2023/09/10 03:54:54;;;;;;;2.80;1.10;;;20.70;44.90;;;;;;4975098;28;20645;-47
2023/09/10 03:57:20;;;;;;;1.10;0.53;;;20.60;45.00;;;;;;4974968;28;20547;-49
2023/09/10 03:59:45;;;;;;;2.60;1.40;;;20.70;44.90;;;;;;4974894;28;20515;-49
2023/09/10 04:02:11;;;;;;;3.50;0.93;;;20.60;44.60;;;;;;4974446;28;20191;-50
2023/09/10 04:04:38;;;;;;;1.43;1.30;;;20.60;44.90;;;;;;4974672;28;20658;-51
2023/09/10 04:07:04;;;;;;;2.03;1.23;;;20.60;45.30;;;;;;4974568;28;20411;-48
2023/09/10 04:09:30;;;;;;;2.30;1.13;;;20.50;45.20;;;;;;4974585;28;20407;-51
2023/09/10 04:11:57;;;;;;;1.40;0.80;;;20.50;45.00;;;;;;4974322;28;20444;-47
2023/09/10 04:14:23;;;;;;;1.87;0.77;;;20.50;45.10;;;;;;4974636;28;20552;-48
2023/09/10 04:16:49;;;;;;;2.30;1.33;;;20.50;45.20;;;;;;4974361;28;21043;-50
2023/09/10 04:19:15;;;;;;;1.83;1.10;;;20.50;45.00;;;;;;4974388;28;20435;-47
2023/09/10 04:21:41;;;;;;;1.10;0.70;;;20.50;45.00;;;;;;4973977;28;20254;-50
2023/09/10 04:24:06;;;;;;;2.60;1.07;;;20.50;45.00;;;;;;4974369;28;20183;-48
2023/09/10 04:26:33;;;;;;;1.70;1.43;;;20.40;45.20;;;;;;4974292;28;20172;-49
2023/09/10 04:28:59;;;;;;;1.10;0.60;;;20.40;45.20;;;;;;4974379;28;20168;-51
2023/09/10 04:31:25;;;;;;;1.43;1.00;;;20.30;45.40;;;;;;4973899;28;20274;-48
2023/09/10 04:33:51;;;;;;;1.37;1.00;;;20.30;45.50;;;;;;4973908;28;20176;-48
2023/09/10 04:36:16;;;;;;;1.20;0.77;;;20.30;45.40;;;;;;4974004;28;20268;-48
2023/09/10 04:38:42;;;;;;;2.50;1.07;;;20.30;45.30;;;;;;4974061;28;20176;-48
2023/09/10 04:41:08;;;;;;;1.10;0.77;;;20.30;45.40;;;;;;4973880;28;20238;-50
2023/09/10 04:43:34;;;;;;;2.03;1.07;;;20.30;45.40;;;;;;4974018;28;20542;-49
2023/09/10 04:45:59;;;;;;;1.20;0.80;;;20.30;45.50;;;;;;4973941;28;20546;-49
2023/09/10 04:48:25;;;;;;;1.30;0.93;;;20.40;45.50;;;;;;4973866;28;20191;-48
2023/09/10 04:50:51;;;;;;;2.43;1.50;;;20.40;45.80;;;;;;4973548;28;20279;-48
2023/09/10 04:53:17;;;;;;;2.33;1.40;;;20.40;45.20;;;;;;4973878;28;20183;-48
2023/09/10 04:55:43;;;;;;;1.40;1.07;;;20.30;45.50;;;;;;4973858;28;20562;-50
2023/09/10 04:58:12;;;;;;;1.40;0.90;;;20.40;45.40;;;;;;4973797;28;20418;-48
2023/09/10 05:00:40;;;;;;;2.00;0.75;;;20.30;45.70;;;;;;4973486;28;20196;-51
2023/09/10 05:03:06;;;;;;;1.50;0.70;;;20.40;45.70;;;;;;4973555;28;20534;-48
2023/09/10 05:05:32;;;;;;;1.10;0.50;;;20.40;45.60;;;;;;4973728;28;20168;-48
2023/09/10 05:07:57;;;;;;;1.40;0.80;;;20.40;45.70;;;;;;4973814;28;20176;-48
2023/09/10 05:10:23;;;;;;;1.53;1.23;;;20.40;45.70;;;;;;4973330;28;20641;-48
2023/09/10 05:12:52;;;;;;;1.77;1.20;;;20.40;45.90;;;;;;4973373;28;20191;-48
2023/09/10 05:15:17;;;;;;;1.40;1.07;;;20.40;45.80;;;;;;4973443;28;20183;-50
2023/09/10 05:17:43;;;;;;;1.20;0.60;;;20.50;45.70;;;;;;4973346;28;20407;-48
2023/09/10 05:20:09;;;;;;;1.50;1.30;;;20.60;45.80;;;;;;4972173;28;20188;-48
2023/09/10 05:22:35;;;;;;;1.20;0.80;;;20.60;45.80;;;;;;4973103;28;20428;-50
2023/09/10 05:25:01;;;;;;;1.20;0.77;;;20.60;45.90;;;;;;4973501;28;20415;-50
2023/09/10 05:27:26;;;;;;;1.53;0.60;;;20.70;45.80;;;;;;4973430;28;20183;-48
2023/09/10 05:29:52;;;;;;;1.30;0.70;;;20.70;46.10;;;;;;4973326;28;20916;-49
2023/09/10 05:32:18;;;;;;;1.30;0.80;;;20.80;45.70;;;;;;4972837;28;20200;-49
2023/09/10 05:34:44;;;;;;;1.80;1.00;;;20.90;46.30;;;;;;4973265;28;20704;-48
2023/09/10 05:37:09;;;;;;;1.13;0.67;;;20.90;46.30;;;;;;4973212;28;20737;-47
2023/09/10 05:39:35;;;;;;;1.10;0.40;;;21.00;46.30;;;;;;4971942;28;20182;-52
2023/09/10 05:42:01;;;;;;;2.10;0.90;;;21.10;45.80;;;;;;4973036;28;20622;-49
2023/09/10 05:44:27;;;;;;;1.90;1.50;;;21.20;45.70;;;;;;4973204;28;20176;-48
2023/09/10 05:46:52;;;;;;;1.30;0.73;;;21.30;45.60;;;;;;4975455;28;20419;-51
2023/09/10 05:49:18;;;;;;;1.10;0.60;;;21.50;45.40;;;;;;4977229;28;20227;-48
2023/09/10 05:51:44;;;;;;;1.37;0.80;;;21.60;45.30;;;;;;4976977;28;20211;-51
2023/09/10 05:54:10;;;;;;;1.50;0.80;;;21.70;45.00;;;;;;4977064;28;20172;-50
2023/09/10 05:56:35;;;;;;;1.40;0.93;;;21.80;44.80;;;;;;4976969;28;20195;-48
2023/09/10 05:59:01;;;;;;;2.90;0.97;;;21.90;44.80;;;;;;4977033;28;20172;-51
2023/09/10 06:01:27;;;;;;;1.30;0.93;;;22.00;44.80;;;;;;4976570;28;20196;-51
2023/09/10 06:03:53;;;;;;;1.30;0.70;;;22.20;44.50;;;;;;4998571;23;20228;-52
2023/09/10 06:06:19;;;;;;;1.37;1.00;;;22.20;44.60;;;;;;4984836;28;20423;-55
2023/09/10 06:08:44;;;;;;;1.30;0.70;;;22.30;44.70;;;;;;4976746;28;20230;-54
2023/09/10 06:11:10;;;;;;;1.47;0.90;;;22.40;44.50;;;;;;4976285;28;20176;-52
2023/09/10 06:13:36;;;;;;;1.50;0.90;;;22.50;44.70;;;;;;4976707;28;20196;-52
2023/09/10 06:16:02;;;;;;;1.33;0.67;;;22.60;44.60;;;;;;4976648;28;20608;-50
2023/09/10 06:18:28;;;;;;;3.60;1.20;;;22.60;44.50;;;;;;4976589;28;20183;-50
2023/09/10 06:20:54;;;;;;;1.60;0.80;;;22.70;44.80;;;;;;4976287;28;20638;-54
2023/09/10 06:23:19;;;;;;;2.00;0.83;;;22.80;44.60;;;;;;4976355;28;20196;-50
2023/09/10 06:25:45;;;;;;;1.30;0.70;;;22.90;44.60;;;;;;4976339;28;20184;-54
2023/09/10 06:28:11;;;;;;;1.37;0.87;;;23.00;44.50;;;;;;4976489;28;20239;-53
2023/09/10 06:30:38;;;;;;;1.57;0.90;;;23.10;44.30;;;;;;4976081;28;20415;-54
2023/09/10 06:33:04;;;;;;;1.40;0.97;;;23.10;44.30;;;;;;4976278;28;20207;-54
2023/09/10 06:35:30;;;;;;;1.20;0.80;;;23.20;44.20;;;;;;4976132;28;20455;-51
2023/09/10 06:37:56;;;;;;;2.40;0.93;;;23.30;44.20;;;;;;4976149;28;20415;-51
2023/09/10 06:40:22;;;;;;;1.30;0.60;;;23.40;44.30;;;;;;4975736;28;20786;-53
2023/09/10 06:42:48;;;;;;;1.80;0.90;;;23.40;44.00;;;;;;4981647;28;20186;-53
2023/09/10 06:45:14;;;;;;;2.17;1.00;;;23.50;44.10;;;;;;4978505;28;20407;-54
2023/09/10 06:47:40;;;;;;;1.20;0.67;;;23.60;44.10;;;;;;4976073;28;20199;-56
2023/09/10 06:50:06;;;;;;;4.93;1.77;;;23.70;44.00;;;;;;4975964;28;20204;-53
2023/09/10 06:52:31;;;;;;;3.77;1.30;;;23.80;43.90;;;;;;4975676;28;20184;-55
2023/09/10 06:54:57;;;;;;;2.07;1.40;;;23.90;43.90;;;;;;4975774;28;20423;-56
2023/09/10 06:57:23;;;;;;;1.97;0.77;;;24.00;43.10;;;;;;4975640;28;20339;-56
2023/09/10 06:59:48;;;;;;;1.53;0.60;;;24.00;42.80;;;;;;4975784;28;20203;-55
2023/09/10 07:02:14;;;;;;;2.43;1.40;;;24.10;43.20;;;;;;4975616;28;20180;-54
2023/09/10 07:04:47;;;;;;;1.27;0.60;;;24.10;43.00;;;;;;4975525;28;20203;-54
2023/09/10 07:07:16;;;;;;;1.67;0.90;;;24.20;42.80;;;;;;4975612;28;20519;-55
2023/09/10 07:09:41;;;;;;;1.83;1.37;;;24.20;43.10;;;;;;4975498;28;20786;-56
2023/09/10 07:12:07;;;;;;;1.83;0.70;;;24.30;43.20;;;;;;4975267;28;20419;-54
2023/09/10 07:14:33;;;;;;;1.00;0.30;;;24.40;43.00;;;;;;4967570;28;20699;-56
2023/09/10 07:16:59;;;;;;;2.90;0.87;;;24.50;43.00;;;;;;4975488;28;20200;-55
2023/09/10 07:19:24;;;;;;;3.63;1.33;;;24.60;42.80;;;;;;4975290;28;20179;-53
2023/09/10 07:21:50;;;;;;;1.10;0.60;;;24.80;42.60;;;;;;4975202;28;20172;-53
2023/09/10 07:24:16;;;;;;;1.80;1.03;;;24.90;42.40;;;;;;4975169;28;20687;-55
2023/09/10 07:26:43;;;;;;;1.40;0.90;;;24.90;42.40;;;;;;4975460;28;20180;-52
2023/09/10 07:29:09;;;;;;;1.20;0.80;;;25.00;42.10;;;;;;4975284;28;20184;-51
2023/09/10 07:31:35;;;;;;;1.50;0.83;;;25.10;42.40;;;;;;4974949;28;20423;-56
2023/09/10 07:34:02;;;;;;;1.87;0.80;;;25.20;42.50;;;;;;4975086;28;20212;-54
2023/09/10 07:36:28;;;;;;;1.93;1.13;;;25.30;41.80;;;;;;4983012;28;21138;-50
2023/09/10 07:38:55;;;;;;;1.63;1.20;;;25.40;42.00;;;;;;4975003;28;20470;-53
2023/09/10 07:41:21;;;;;;;1.90;1.07;;;25.50;42.30;;;;;;4974653;28;20968;-51
2023/09/10 07:43:46;;;;;;;5.03;1.87;;;25.70;41.80;;;;;;4974873;28;20427;-52
2023/09/10 07:46:12;;;;;;;1.43;0.60;;;25.80;41.60;;;;;;4974899;28;20426;-54
2023/09/10 07:48:38;;;;;;;1.70;0.80;;;26.00;42.10;;;;;;4974474;28;20215;-50
2023/09/10 07:51:05;;;;;;;1.30;0.97;;;26.10;41.50;;;;;;4974528;28;20182;-52
2023/09/10 07:53:31;;;;;;;2.53;1.03;;;26.20;39.70;;;;;;4974560;28;20810;-54
2023/09/10 07:55:57;;;;;;;1.40;0.70;;;26.20;39.70;;;;;;4974879;28;20451;-50
2023/09/10 07:58:23;;;;;;;1.40;0.70;;;26.20;40.00;;;;;;4974636;28;20637;-50
2023/09/10 08:00:50;;;;;;;1.30;0.80;;;26.20;40.20;;;;;;4974464;28;20495;-54
2023/09/10 08:03:16;;;;;;;1.40;0.73;;;26.30;40.20;;;;;;4974348;28;20794;-54
2023/09/10 08:05:41;;;;;;;2.10;1.03;;;26.50;40.10;;;;;;4974530;28;20973;-51
2023/09/10 08:08:07;;;;;;;1.20;0.70;;;26.60;39.20;;;;;;4973982;28;20454;-51
2023/09/10 08:10:34;;;;;;;2.63;0.90;;;26.70;40.30;;;;;;4974406;28;20187;-54
2023/09/10 08:13:03;;;;;;;1.40;1.07;;;26.90;39.60;;;;;;4974208;28;20415;-51
2023/09/10 08:15:29;;;;;;;1.73;0.67;;;27.00;40.10;;;;;;4974340;28;20411;-50
2023/09/10 08:17:56;;;;;;;1.90;1.10;;;27.10;39.70;;;;;;4974460;28;20415;-54
2023/09/10 08:20:22;;;;;;;1.13;0.63;;;27.20;39.70;;;;;;4973981;28;20450;-51
2023/09/10 08:22:48;;;;;;;1.60;1.10;;;27.30;39.10;;;;;;4974091;28;20411;-54
2023/09/10 08:25:14;;;;;;;1.57;0.60;;;27.40;39.10;;;;;;4974251;28;20450;-54
2023/09/10 08:27:40;;;;;;;1.80;1.00;;;27.50;39.00;;;;;;4974139;28;20820;-51
2023/09/10 08:30:07;;;;;;;2.07;1.27;;;27.70;39.30;;;;;;4974081;28;20179;-50
2023/09/10 08:32:34;;;;;;;1.67;0.97;;;27.80;39.50;;;;;;4973898;28;20407;-54
2023/09/10 08:34:59;;;;;;;1.20;0.77;;;28.00;39.00;;;;;;4972679;28;20514;-51
2023/09/10 08:37:25;;;;;;;1.50;0.60;;;28.20;39.10;;;;;;4974066;28;20549;-54
2023/09/10 08:39:51;;;;;;;2.20;0.80;;;28.30;39.10;;;;;;4973933;28;20176;-54
2023/09/10 08:42:44;;;;;;;3.63;1.67;;;28.40;37.80;;;;;;4973542;28;20411;-52
2023/09/10 08:45:11;;;;;;;1.53;0.80;;;28.60;37.60;;;;;;4973811;28;20415;-55
2023/09/10 08:47:41;;;;;;;2.40;1.73;;;28.60;37.70;;;;;;4973877;28;20431;-52
2023/09/10 08:50:11;;;;;;;2.17;1.30;;;28.70;38.00;;;;;;4974009;28;20963;-54
2023/09/10 08:52:45;;;;;;;1.40;0.80;;;28.90;38.20;;;;;;4973509;28;20439;-50
2023/09/10 08:55:13;;;;;;;3.83;1.37;;;28.90;37.60;;;;;;4973623;28;20412;-55
2023/09/10 08:57:40;;;;;;;1.50;1.10;;;29.00;38.00;;;;;;4973565;28;20448;-51
2023/09/10 09:00:13;;;;;;;1.10;0.60;;;29.10;38.00;;;;;;4973539;28;20438;-53
2023/09/10 09:02:40;;;;;;;1.73;1.03;;;29.30;37.90;;;;;;4966055;28;20407;-52
2023/09/10 09:05:06;;;;;;;1.63;1.17;;;29.30;37.60;;;;;;4973258;28;21006;-55
2023/09/10 09:07:47;;;;;;;2.10;1.00;;;29.40;37.20;;;;;;4973488;28;20423;-54
2023/09/10 09:10:21;;;;;;;1.13;0.63;;;29.40;36.80;;;;;;4973223;28;20963;-52
2023/09/10 09:12:52;;;;;;;1.30;0.73;;;29.40;35.40;;;;;;4973264;28;20407;-52
2023/09/10 09:15:19;;;;;;;1.20;0.70;;;29.40;34.70;;;;;;4973421;28;20415;-53
2023/09/10 09:17:46;;;;;;;2.27;1.27;;;29.30;35.40;;;;;;4973262;28;20418;-53
2023/09/10 09:20:16;;;;;;;1.40;0.70;;;29.30;36.00;;;;;;4972401;28;20407;-52
2023/09/10 09:22:46;;;;;;;1.57;1.13;;;29.40;36.10;;;;;;4973134;28;20491;-52
2023/09/10 09:25:12;;;;;;;1.20;0.80;;;29.50;35.80;;;;;;4971813;28;20470;-50
2023/09/10 09:27:38;;;;;;;2.47;0.90;;;29.60;36.10;;;;;;4973147;28;20399;-55
2023/09/10 09:30:06;;;;;;;1.37;0.90;;;29.70;36.00;;;;;;4973159;28;20924;-51
2023/09/10 09:32:37;;;;;;;1.93;0.87;;;29.80;36.30;;;;;;4972854;28;20921;-54
2023/09/10 09:35:04;;;;;;;1.60;1.33;;;29.90;36.40;;;;;;4973044;28;20896;-54
2023/09/10 09:37:33;;;;;;;2.50;1.37;;;30.00;36.50;;;;;;4973015;28;20455;-51
2023/09/10 09:40:09;;;;;;;1.30;0.83;;;30.00;34.20;;;;;;4973237;28;20443;-54
2023/09/10 09:42:36;;;;;;;1.20;0.40;;;29.90;34.00;;;;;;4972738;28;20415;-54
2023/09/10 09:45:03;;;;;;;1.10;0.40;;;29.90;35.20;;;;;;4972983;28;20439;-51
2023/09/10 09:47:30;;;;;;;1.30;0.90;;;30.00;35.90;;;;;;4972998;28;20489;-54
2023/09/10 09:49:57;;;;;;;1.03;0.53;;;30.10;35.90;;;;;;4973202;28;20497;-54
2023/09/10 09:52:23;;;;;;;1.10;0.47;;;30.20;35.80;;;;;;4972746;28;20421;-51
2023/09/10 09:54:49;;;;;;;1.00;0.30;;;30.30;35.70;;;;;;4972924;28;20431;-55
2023/09/10 09:57:16;;;;;;;1.53;1.43;;;30.40;35.70;;;;;;4972664;28;20462;-52
2023/09/10 09:59:43;;;;;;;1.10;0.60;;;30.50;35.50;;;;;;4973023;28;20416;-54
2023/09/10 10:02:15;;;;;;;1.20;0.63;;;30.60;35.20;;;;;;4972729;28;20492;-54
2023/09/10 10:04:42;;;;;;;1.40;0.77;;;30.70;35.20;;;;;;4972637;28;20467;-51
2023/09/10 10:07:09;;;;;;;1.30;0.90;;;30.70;35.70;;;;;;4972947;28;20422;-54
2023/09/10 10:09:41;;;;;;;1.77;0.70;;;30.80;35.70;;;;;;4972869;28;20415;-52
2023/09/10 10:12:07;;;;;;;1.10;0.50;;;31.10;35.70;;;;;;4972461;28;20422;-53
2023/09/10 10:14:34;;;;;;;1.00;0.40;;;31.20;35.40;;;;;;4972665;28;20434;-56
2023/09/10 10:17:01;;;;;;;1.13;0.57;;;31.30;34.90;;;;;;4972677;28;20500;-55
2023/09/10 10:19:34;;;;;;;1.20;0.90;;;31.30;33.60;;;;;;4972881;28;20522;-53
2023/09/10 10:22:01;;;;;;;1.30;0.77;;;31.40;33.50;;;;;;4972405;28;20412;-56
2023/09/10 10:24:27;;;;;;;1.00;0.30;;;31.40;33.80;;;;;;4972602;28;20435;-53
2023/09/10 10:26:53;;;;;;;1.20;0.60;;;31.50;33.30;;;;;;4972662;28;20943;-52
2023/09/10 10:29:21;;;;;;;1.90;1.77;;;31.60;30.70;;;;;;4972575;28;20423;-56
2023/09/10 10:31:56;;;;;;;7.60;2.60;;;31.60;31.90;;;;;;4973948;28;20419;-55
2023/09/10 10:34:27;;;;;;;1.10;0.50;;;31.70;31.70;;;;;;4969905;28;20457;-55
2023/09/10 10:37:18;;;;;;;7.43;4.70;;;31.80;31.10;;;;;;4970123;28;20463;-55
2023/09/10 10:40:12;;;;;;;1.43;1.03;;;31.90;31.60;;;;;;4969005;28;20445;-53
2023/09/10 10:42:57;;;;;;;1.80;0.77;;;32.10;32.00;;;;;;4967463;28;20485;-56
2023/09/10 10:45:25;;;;;;;1.70;1.00;;;32.10;31.50;;;;;;4976249;28;20968;-56
2023/09/10 10:47:51;;;;;;;17.60;8.60;;;32.20;31.30;;;;;;4970968;28;20411;-55
2023/09/10 10:50:24;;;;;;;6.67;4.00;;;32.30;31.70;;;;;;4983726;28;20414;-56
2023/09/10 10:53:04;;;;;;;3.43;1.80;;;32.40;31.50;;;;;;4981339;28;20399;-55
2023/09/10 10:55:33;;;;;;;3.30;0.60;;;32.50;30.00;;;;;;4976798;28;20502;-55
2023/09/10 10:58:00;;;;;;;1.40;0.90;;;32.60;30.70;;;;;;4975799;28;20448;-54
2023/09/10 11:00:27;;;;;;;1.40;1.27;;;32.60;31.00;;;;;;4977494;28;20415;-55
2023/09/10 11:03:11;;;;;;;1.10;0.50;;;32.70;29.50;;;;;;4980118;28;20419;-56
2023/09/10 11:05:52;;;;;;;1.30;0.60;;;32.70;30.60;;;;;;4975698;28;20420;-55
2023/09/10 11:08:37;;;;;;;1.30;1.13;;;32.80;31.00;;;;;;4975662;28;20418;-55
2023/09/10 11:11:08;;;;;;;2.63;0.70;;;32.80;30.90;;;;;;4983310;28;20423;-55
2023/09/10 11:13:54;;;;;;;1.10;0.67;;;32.80;30.90;;;;;;4978336;28;20525;-56
2023/09/10 11:16:20;;;;;;;1.10;0.63;;;32.80;31.60;;;;;;4986664;28;20449;-55
2023/09/10 11:18:46;;;;;;;1.20;0.60;;;32.80;30.50;;;;;;4988179;28;20779;-55
2023/09/10 11:21:14;;;;;;;1.37;0.67;;;32.90;30.50;;;;;;4975309;28;20254;-55
2023/09/10 11:23:52;;;;;;;1.00;0.50;;;32.90;31.00;;;;;;4975236;28;20435;-56
2023/09/10 11:26:18;;;;;;;3.07;0.70;;;32.90;30.40;;;;;;4975524;28;20435;-54
2023/09/10 11:28:47;;;;;;;1.30;0.60;;;32.80;30.40;;;;;;4975608;28;20411;-55
2023/09/10 11:31:38;;;;;;;1.60;1.00;;;32.80;30.30;;;;;;4974245;28;20168;-57
2023/09/10 11:34:27;;;;;;;1.03;0.53;;;32.80;30.20;;;;;;4974492;28;20984;-59
2023/09/10 11:37:04;;;;;;;1.50;0.90;;;32.90;30.20;;;;;;4975374;28;20486;-58
2023/09/10 11:39:35;;;;;;;1.33;0.60;;;32.90;29.70;;;;;;4974431;28;20442;-56
2023/09/10 11:42:04;;;;;;;1.00;0.43;;;33.00;28.20;;;;;;4975164;28;20822;-57
2023/09/10 11:44:30;;;;;;;1.60;0.80;;;33.10;28.80;;;;;;4957230;28;20535;-55
2023/09/10 11:46:56;;;;;;;1.13;0.63;;;33.20;29.00;;;;;;4965794;28;20486;-58
2023/09/10 11:49:23;;;;;;;1.70;1.20;;;33.20;28.00;;;;;;4975212;28;20925;-58
2023/09/10 11:51:55;;;;;;;1.20;0.60;;;33.30;28.60;;;;;;4974939;28;20541;-55
2023/09/10 11:54:21;;;;;;;1.93;0.93;;;33.30;28.40;;;;;;4974820;28;20996;-54
2023/09/10 11:56:58;;;;;;;1.00;0.40;;;33.40;28.80;;;;;;4974803;28;20786;-57
2023/09/10 11:59:32;;;;;;;1.30;0.60;;;33.40;28.50;;;;;;4975141;28;20501;-55
2023/09/10 12:01:58;;;;;;;1.00;0.40;;;33.40;29.70;;;;;;4974594;28;20407;-58
2023/09/10 12:04:31;;;;;;;1.20;0.70;;;33.80;29.00;;;;;;4974590;28;20956;-55
2023/09/10 12:06:58;;;;;;;1.07;0.60;;;33.50;28.70;;;;;;4974764;28;20412;-56
2023/09/10 12:09:27;;;;;;;1.10;0.50;;;33.60;29.20;;;;;;4974642;28;20462;-57
2023/09/10 12:11:54;;;;;;;1.10;0.50;;;33.70;29.00;;;;;;4974399;28;20462;-57
2023/09/10 12:14:21;;;;;;;1.20;0.63;;;33.70;25.70;;;;;;4974597;28;20429;-56
2023/09/10 12:16:47;;;;;;;1.10;0.50;;;33.80;26.00;;;;;;4974481;28;20456;-57
2023/09/10 12:19:13;;;;;;;1.83;1.07;;;33.70;27.20;;;;;;4974465;28;20411;-56
2023/09/10 12:21:43;;;;;;;1.27;0.63;;;33.80;27.30;;;;;;4974214;28;20399;-55
2023/09/10 12:24:09;;;;;;;1.10;0.53;;;33.80;26.70;;;;;;4974202;28;20805;-56
2023/09/10 12:26:35;;;;;;;1.17;0.70;;;33.90;26.30;;;;;;4974568;28;20412;-58
2023/09/10 12:29:02;;;;;;;1.00;0.40;;;34.00;27.70;;;;;;4974399;28;20434;-53
2023/09/10 12:31:29;;;;;;;1.23;0.70;;;34.00;27.80;;;;;;4973504;28;20262;-55
2023/09/10 12:33:56;;;;;;;1.30;0.90;;;34.00;28.10;;;;;;4954906;28;20436;-56
2023/09/10 12:36:21;;;;;;;1.10;0.50;;;34.00;28.50;;;;;;4953673;29;20448;-52
2023/09/10 12:38:47;;;;;;;1.10;0.50;;;34.00;27.70;;;;;;4954763;28;20418;-54
2023/09/10 12:41:16;;;;;;;1.47;0.67;;;34.00;27.90;;;;;;4954700;28;20183;-54
2023/09/10 12:43:43;;;;;;;1.00;0.40;;;33.90;27.70;;;;;;4960290;28;20871;-53
2023/09/10 12:46:09;;;;;;;3.43;0.90;;;33.90;26.90;;;;;;4973967;28;20416;-55
2023/09/10 12:48:35;;;;;;;5.23;3.23;;;33.90;27.20;;;;;;4959838;28;20969;-55
2023/09/10 12:51:01;;;;;;;3.07;2.07;;;33.90;28.00;;;;;;4954354;28;20188;-53